ePrivacy and GPDR Cookie Consent by Cookie Consent
EmailTwitter


Observations de surface / Royaume-Uni / EGLL (03772)

Régions: Québec | Canada | États-Unis | Europe | France | UK | Ailleurs
Station
Affichage
Infos & localisation pour EGLL (03772) | Aide pour décoder les METARs

Observations prises le 2022-09-30 à 19H50 UTC à LONDON/HEATHROW, UK (EGLL)

Etat du ciel: partiellement nuageux.

Obstacle(s) à la visibilité: faible pluie.

Température: 14.0 Celsius

Point de rosée: 13.0 Celsius

Humidité relative: 94%

Facteur vent: 12.

Vents: Sud-ouest à 30 km/h ou 16 noeuds.

Pression au niveau moyen de la mer: 99.80 kilopascals.

Visibilité horizontale: 6.21 milles terrestres ou 9.94 kilomètres.

Hauteur du plafond: 335 mètres ( 1100 pieds ).

Observation METAR:

EGLL 301950Z AUTO 21016KT 9999 -RA SCT008 BKN011 BKN016 14/13 Q0998 TEMPO RA=